Bezoek onze andere website:

Template documentation
and downloads

And another site


METAR rapporten vliegvelden

   
EBBR - Brussels International Airport, Belgium
Afstand tot: W 14 km
Gewijzigd: 19-08-2018 03:20
Helder  
Helder  
   Wind: ZZW 7.4 km/h
Wind: ZZW 7.4 km/h
Temperatuur: 14°C
Dauwpunt: 13°C
Vochtigheid: 94%
Barometer: 1022 hPa
Zicht: meer dan 10 km
Bewolking: Helder
EBBR 190120Z 21004KT CAVOK 14/13 Q1022 NOSIG
EBBE - Beauvechain (Bevekom), Belgium
Afstand tot: ZZO 17 km
Gewijzigd: 19-08-2018 03:25
Helder  
Helder  
   Wind: ZW 9.3 km/h
Wind: ZW 9.3 km/h
Temperatuur: 15°C
Dauwpunt: 13°C
Vochtigheid: 88%
Barometer: 1023 hPa
Bewolking: Helder
Zicht: meer dan 10 km
Bewolking: Helder
EBBE 190125Z AUTO 22005KT 9999 NCD 15/13 Q1023 BLU
EBDT - Schaffen, Belgium
Afstand tot: ONO 29 km
Gewijzigd: 19-08-2018 03:25
Helder  
Helder  
   Wind: ZW 5.6 km/h
Wind: ZW 5.6 km/h
Temperatuur: 16°C
Dauwpunt: 13°C
Vochtigheid: 83%
Barometer: 1022 hPa
Bewolking: Helder
Zicht: meer dan 10 km
Bewolking: Helder
EBDT 190125Z AUTO 23003KT 9999 NCD 16/13 Q1022 BLU
EBAW - Antwerp/Deurne, Belgium
Afstand tot: NNW 38 km
Gewijzigd: 19-08-2018 03:20
Helder  
Helder  
   Wind: ZW 9.3 km/h
Wind: ZW 9.3 km/h
Temperatuur: 17°C
Dauwpunt: 14°C
Vochtigheid: 83%
Barometer: 1022 hPa
Zicht: meer dan 10 km
Bewolking: Helder
EBAW 190120Z AUTO 23005KT 210V270 CAVOK 17/14 Q1022
EBCI - Charleroi/Gosselies, Belgium
Afstand tot: ZZW 51 km
Gewijzigd: 19-08-2018 03:20
Licht bewolkt  
Licht bewolkt  
   Wind: Zuiden 7.4 km/h
Wind: Zuiden 7.4 km/h
Temperatuur: 14°C
Dauwpunt: 13°C
Vochtigheid: 94%
Barometer: 1023 hPa
Bewolking: Licht bewolkt
Zicht: meer dan 10 km
Bewolking: Licht bewolkt 3400 ft
EBCI 190120Z 19004KT 9999 FEW034 14/13 Q1023 NOSIG
EBLG - Bierset/Liege, Belgium
Afstand tot: OZO 60 km
Gewijzigd: 19-08-2018 03:20
Helder  
Helder  
   Wind: Zuiden 7.4 km/h
Wind: Zuiden 7.4 km/h
Temperatuur: 15°C
Dauwpunt: 13°C
Vochtigheid: 88%
Barometer: 1023 hPa
Zicht: meer dan 10 km
Bewolking: Helder
EBLG 190120Z 19004KT 160V220 CAVOK 15/13 Q1023 NOSIG

Script ontwikkeld door  Saratoga-weather.org Aangepast voor de template door  Weerstation Leuven

U vindt ons ook hier:

Het Weer Aktueel

WeatherCloud

Weather Underground